sensor_id;sensor_type;location;lat;lon;timestamp;P1;durP1;ratioP1;P2;durP2;ratioP2
59474;SDS011;45288;51.136;16.928;2022-08-21T00:00:41;19.50;;;15.60;;
59474;SDS011;45288;51.136;16.928;2022-08-21T00:03:08;20.45;;;15.60;;
59474;SDS011;45288;51.136;16.928;2022-08-21T00:05:36;20.87;;;16.67;;
59474;SDS011;45288;51.136;16.928;2022-08-21T00:08:03;20.85;;;16.98;;
59474;SDS011;45288;51.136;16.928;2022-08-21T00:10:29;23.57;;;16.30;;
59474;SDS011;45288;51.136;16.928;2022-08-21T00:12:54;20.58;;;16.20;;
59474;SDS011;45288;51.136;16.928;2022-08-21T00:15:24;21.07;;;16.07;;
59474;SDS011;45288;51.136;16.928;2022-08-21T00:17:51;20.90;;;16.25;;
59474;SDS011;45288;51.136;16.928;2022-08-21T00:20:17;21.63;;;17.10;;
59474;SDS011;45288;51.136;16.928;2022-08-21T00:22:43;22.92;;;17.08;;
59474;SDS011;45288;51.136;16.928;2022-08-21T00:25:09;23.65;;;17.25;;
59474;SDS011;45288;51.136;16.928;2022-08-21T00:27:35;23.07;;;18.00;;
59474;SDS011;45288;51.136;16.928;2022-08-21T00:30:02;23.20;;;17.58;;
59474;SDS011;45288;51.136;16.928;2022-08-21T00:32:29;24.55;;;17.15;;
59474;SDS011;45288;51.136;16.928;2022-08-21T00:34:55;23.20;;;17.60;;
59474;SDS011;45288;51.136;16.928;2022-08-21T00:37:21;22.85;;;17.40;;
59474;SDS011;45288;51.136;16.928;2022-08-21T00:39:47;24.58;;;17.30;;
59474;SDS011;45288;51.136;16.928;2022-08-21T00:42:12;21.80;;;17.47;;
59474;SDS011;45288;51.136;16.928;2022-08-21T00:44:42;20.85;;;16.90;;
59474;SDS011;45288;51.136;16.928;2022-08-21T00:47:08;22.33;;;17.08;;
59474;SDS011;45288;51.136;16.928;2022-08-21T00:49:34;20.65;;;16.02;;
59474;SDS011;45288;51.136;16.928;2022-08-21T00:51:59;20.97;;;16.30;;
59474;SDS011;45288;51.136;16.928;2022-08-21T00:54:27;21.53;;;15.90;;
59474;SDS011;45288;51.136;16.928;2022-08-21T00:56:54;20.40;;;16.20;;
59474;SDS011;45288;51.136;16.928;2022-08-21T00:59:21;19.30;;;15.13;;
59474;SDS011;45288;51.136;16.928;2022-08-21T01:01:48;18.70;;;15.07;;
59474;SDS011;45288;51.136;16.928;2022-08-21T01:04:13;18.23;;;14.98;;
59474;SDS011;45288;51.136;16.928;2022-08-21T01:06:41;18.13;;;13.95;;
59474;SDS011;45288;51.136;16.928;2022-08-21T01:09:07;18.23;;;13.55;;
59474;SDS011;45288;51.136;16.928;2022-08-21T01:11:33;16.53;;;13.10;;
59474;SDS011;45288;51.136;16.928;2022-08-21T01:13:59;17.48;;;13.35;;
59474;SDS011;45288;51.136;16.928;2022-08-21T01:16:25;16.13;;;12.07;;
59474;SDS011;45288;51.136;16.928;2022-08-21T01:18:51;14.43;;;11.45;;
59474;SDS011;45288;51.136;16.928;2022-08-21T01:21:21;16.80;;;12.02;;
59474;SDS011;45288;51.136;16.928;2022-08-21T01:23:48;15.83;;;11.97;;
59474;SDS011;45288;51.136;16.928;2022-08-21T01:26:14;16.20;;;11.50;;
59474;SDS011;45288;51.136;16.928;2022-08-21T01:28:58;14.18;;;11.32;;
59474;SDS011;45288;51.136;16.928;2022-08-21T01:31:26;14.90;;;12.20;;
59474;SDS011;45288;51.136;16.928;2022-08-21T01:33:53;16.10;;;12.05;;
59474;SDS011;45288;51.136;16.928;2022-08-21T01:36:18;15.18;;;11.38;;
59474;SDS011;45288;51.136;16.928;2022-08-21T01:38:44;15.80;;;11.93;;
59474;SDS011;45288;51.136;16.928;2022-08-21T01:41:10;13.83;;;11.00;;
59474;SDS011;45288;51.136;16.928;2022-08-21T01:43:35;14.63;;;11.18;;
59474;SDS011;45288;51.136;16.928;2022-08-21T01:46:02;11.83;;;10.07;;
59474;SDS011;45288;51.136;16.928;2022-08-21T01:48:28;11.98;;;9.95;;
59474;SDS011;45288;51.136;16.928;2022-08-21T01:50:53;11.90;;;9.10;;
59474;SDS011;45288;51.136;16.928;2022-08-21T01:53:19;11.27;;;9.10;;
59474;SDS011;45288;51.136;16.928;2022-08-21T01:55:45;9.15;;;7.45;;
59474;SDS011;45288;51.136;16.928;2022-08-21T01:58:10;8.03;;;7.03;;
59474;SDS011;45288;51.136;16.928;2022-08-21T02:00:36;8.27;;;7.13;;
59474;SDS011;45288;51.136;16.928;2022-08-21T02:03:02;7.63;;;6.82;;
59474;SDS011;45288;51.136;16.928;2022-08-21T02:05:27;7.47;;;6.30;;
59474;SDS011;45288;51.136;16.928;2022-08-21T02:07:54;6.53;;;5.70;;
59474;SDS011;45288;51.136;16.928;2022-08-21T02:10:24;6.38;;;5.35;;
59474;SDS011;45288;51.136;16.928;2022-08-21T02:12:51;5.85;;;5.25;;
59474;SDS011;45288;51.136;16.928;2022-08-21T02:15:17;5.70;;;5.10;;
59474;SDS011;45288;51.136;16.928;2022-08-21T02:17:45;6.03;;;5.43;;
59474;SDS011;45288;51.136;16.928;2022-08-21T02:20:11;6.97;;;5.63;;
59474;SDS011;45288;51.136;16.928;2022-08-21T02:22:40;7.10;;;5.68;;
59474;SDS011;45288;51.136;16.928;2022-08-21T02:25:06;7.30;;;5.80;;
59474;SDS011;45288;51.136;16.928;2022-08-21T02:27:36;7.07;;;5.80;;
59474;SDS011;45288;51.136;16.928;2022-08-21T02:30:02;6.72;;;5.70;;
59474;SDS011;45288;51.136;16.928;2022-08-21T02:32:28;6.60;;;5.90;;
59474;SDS011;45288;51.136;16.928;2022-08-21T02:34:54;6.55;;;5.30;;
59474;SDS011;45288;51.136;16.928;2022-08-21T02:37:20;6.00;;;5.40;;
59474;SDS011;45288;51.136;16.928;2022-08-21T02:39:46;5.80;;;4.88;;
59474;SDS011;45288;51.136;16.928;2022-08-21T02:42:11;5.60;;;4.77;;
59474;SDS011;45288;51.136;16.928;2022-08-21T02:44:37;5.30;;;4.80;;
59474;SDS011;45288;51.136;16.928;2022-08-21T02:47:03;5.30;;;4.67;;
59474;SDS011;45288;51.136;16.928;2022-08-21T02:49:29;5.72;;;5.00;;
59474;SDS011;45288;51.136;16.928;2022-08-21T02:51:55;6.05;;;5.20;;
59474;SDS011;45288;51.136;16.928;2022-08-21T02:54:20;5.03;;;4.53;;
59474;SDS011;45288;51.136;16.928;2022-08-21T02:56:46;5.67;;;4.97;;
59474;SDS011;45288;51.136;16.928;2022-08-21T02:59:12;5.70;;;4.90;;
59474;SDS011;45288;51.136;16.928;2022-08-21T03:01:37;5.83;;;5.23;;
59474;SDS011;45288;51.136;16.928;2022-08-21T03:04:03;5.80;;;5.20;;
59474;SDS011;45288;51.136;16.928;2022-08-21T03:06:29;6.03;;;5.05;;
59474;SDS011;45288;51.136;16.928;2022-08-21T03:08:55;6.32;;;5.60;;
59474;SDS011;45288;51.136;16.928;2022-08-21T03:11:20;6.40;;;5.63;;
59474;SDS011;45288;51.136;16.928;2022-08-21T03:13:46;6.73;;;5.87;;
59474;SDS011;45288;51.136;16.928;2022-08-21T03:16:12;6.85;;;5.75;;
59474;SDS011;45288;51.136;16.928;2022-08-21T03:18:37;7.07;;;5.60;;
59474;SDS011;45288;51.136;16.928;2022-08-21T03:21:03;6.03;;;5.43;;
59474;SDS011;45288;51.136;16.928;2022-08-21T03:23:29;7.10;;;5.53;;
59474;SDS011;45288;51.136;16.928;2022-08-21T03:25:55;6.87;;;5.07;;
59474;SDS011;45288;51.136;16.928;2022-08-21T03:28:22;6.50;;;5.80;;
59474;SDS011;45288;51.136;16.928;2022-08-21T03:30:48;7.07;;;5.72;;
59474;SDS011;45288;51.136;16.928;2022-08-21T03:33:14;6.20;;;5.60;;
59474;SDS011;45288;51.136;16.928;2022-08-21T03:35:41;6.10;;;5.50;;
59474;SDS011;45288;51.136;16.928;2022-08-21T03:38:07;6.70;;;5.80;;
59474;SDS011;45288;51.136;16.928;2022-08-21T03:40:33;6.80;;;5.90;;
59474;SDS011;45288;51.136;16.928;2022-08-21T03:42:59;6.50;;;5.87;;
59474;SDS011;45288;51.136;16.928;2022-08-21T03:45:25;7.10;;;6.00;;
59474;SDS011;45288;51.136;16.928;2022-08-21T03:47:57;7.00;;;6.30;;
59474;SDS011;45288;51.136;16.928;2022-08-21T03:50:25;6.77;;;5.90;;
59474;SDS011;45288;51.136;16.928;2022-08-21T03:52:51;6.90;;;5.85;;
59474;SDS011;45288;51.136;16.928;2022-08-21T03:55:17;6.68;;;5.97;;
59474;SDS011;45288;51.136;16.928;2022-08-21T03:57:43;6.97;;;6.05;;
59474;SDS011;45288;51.136;16.928;2022-08-21T04:00:09;7.63;;;6.38;;
59474;SDS011;45288;51.136;16.928;2022-08-21T04:02:37;6.68;;;5.82;;
59474;SDS011;45288;51.136;16.928;2022-08-21T04:05:03;7.13;;;5.70;;
59474;SDS011;45288;51.136;16.928;2022-08-21T04:07:30;6.10;;;5.05;;
59474;SDS011;45288;51.136;16.928;2022-08-21T04:09:55;7.53;;;5.90;;
59474;SDS011;45288;51.136;16.928;2022-08-21T04:12:21;6.30;;;5.45;;
59474;SDS011;45288;51.136;16.928;2022-08-21T04:14:47;5.93;;;5.07;;
59474;SDS011;45288;51.136;16.928;2022-08-21T04:17:12;6.15;;;4.70;;
59474;SDS011;45288;51.136;16.928;2022-08-21T04:19:38;5.00;;;4.50;;
59474;SDS011;45288;51.136;16.928;2022-08-21T04:22:03;4.80;;;4.40;;
59474;SDS011;45288;51.136;16.928;2022-08-21T04:24:29;4.43;;;4.03;;
59474;SDS011;45288;51.136;16.928;2022-08-21T04:26:55;4.60;;;4.20;;
59474;SDS011;45288;51.136;16.928;2022-08-21T04:29:20;5.03;;;4.22;;
59474;SDS011;45288;51.136;16.928;2022-08-21T04:31:46;4.43;;;3.53;;
59474;SDS011;45288;51.136;16.928;2022-08-21T04:34:12;4.37;;;3.97;;
59474;SDS011;45288;51.136;16.928;2022-08-21T04:36:38;4.15;;;3.63;;
59474;SDS011;45288;51.136;16.928;2022-08-21T04:39:04;4.23;;;3.83;;
59474;SDS011;45288;51.136;16.928;2022-08-21T04:41:30;3.97;;;3.60;;
59474;SDS011;45288;51.136;16.928;2022-08-21T04:43:55;4.30;;;3.72;;
59474;SDS011;45288;51.136;16.928;2022-08-21T04:46:22;4.13;;;3.73;;
59474;SDS011;45288;51.136;16.928;2022-08-21T04:48:47;4.00;;;3.60;;
59474;SDS011;45288;51.136;16.928;2022-08-21T04:51:17;4.03;;;3.67;;
59474;SDS011;45288;51.136;16.928;2022-08-21T04:56:18;5.10;;;3.70;;
59474;SDS011;45288;51.136;16.928;2022-08-21T04:58:45;4.35;;;3.95;;
59474;SDS011;45288;51.136;16.928;2022-08-21T05:01:13;4.70;;;4.10;;
59474;SDS011;45288;51.136;16.928;2022-08-21T05:03:41;3.95;;;3.60;;
59474;SDS011;45288;51.136;16.928;2022-08-21T05:06:08;4.20;;;3.80;;
59474;SDS011;45288;51.136;16.928;2022-08-21T05:08:35;5.18;;;4.30;;
59474;SDS011;45288;51.136;16.928;2022-08-21T05:11:02;4.53;;;4.13;;
59474;SDS011;45288;51.136;16.928;2022-08-21T05:13:28;4.53;;;4.13;;
59474;SDS011;45288;51.136;16.928;2022-08-21T05:15:53;4.77;;;4.27;;
59474;SDS011;45288;51.136;16.928;2022-08-21T05:18:19;4.65;;;4.20;;
59474;SDS011;45288;51.136;16.928;2022-08-21T05:20:45;5.07;;;4.57;;
59474;SDS011;45288;51.136;16.928;2022-08-21T05:23:12;4.90;;;4.40;;
59474;SDS011;45288;51.136;16.928;2022-08-21T05:25:38;5.30;;;4.80;;
59474;SDS011;45288;51.136;16.928;2022-08-21T05:28:04;5.65;;;5.05;;
59474;SDS011;45288;51.136;16.928;2022-08-21T05:30:29;6.03;;;4.90;;
59474;SDS011;45288;51.136;16.928;2022-08-21T05:32:56;5.00;;;4.50;;
59474;SDS011;45288;51.136;16.928;2022-08-21T05:35:22;4.97;;;4.50;;
59474;SDS011;45288;51.136;16.928;2022-08-21T05:37:48;5.10;;;4.60;;
59474;SDS011;45288;51.136;16.928;2022-08-21T05:40:13;5.15;;;4.13;;
59474;SDS011;45288;51.136;16.928;2022-08-21T05:42:39;5.00;;;4.50;;
59474;SDS011;45288;51.136;16.928;2022-08-21T05:45:05;4.57;;;4.18;;
59474;SDS011;45288;51.136;16.928;2022-08-21T05:47:31;5.47;;;4.77;;
59474;SDS011;45288;51.136;16.928;2022-08-21T05:49:56;5.18;;;4.68;;
59474;SDS011;45288;51.136;16.928;2022-08-21T05:52:22;4.80;;;4.33;;
59474;SDS011;45288;51.136;16.928;2022-08-21T05:54:48;4.70;;;4.13;;
59474;SDS011;45288;51.136;16.928;2022-08-21T05:57:13;4.38;;;3.97;;
59474;SDS011;45288;51.136;16.928;2022-08-21T05:59:39;4.30;;;3.90;;
59474;SDS011;45288;51.136;16.928;2022-08-21T06:02:05;4.22;;;3.83;;
59474;SDS011;45288;51.136;16.928;2022-08-21T06:04:36;4.40;;;4.00;;
59474;SDS011;45288;51.136;16.928;2022-08-21T06:07:02;4.85;;;4.10;;
59474;SDS011;45288;51.136;16.928;2022-08-21T06:09:28;4.77;;;4.03;;
59474;SDS011;45288;51.136;16.928;2022-08-21T06:11:54;4.78;;;4.35;;
59474;SDS011;45288;51.136;16.928;2022-08-21T06:14:19;4.27;;;3.87;;
59474;SDS011;45288;51.136;16.928;2022-08-21T06:16:45;4.78;;;4.30;;
59474;SDS011;45288;51.136;16.928;2022-08-21T06:19:11;3.90;;;3.50;;
59474;SDS011;45288;51.136;16.928;2022-08-21T06:21:37;8.52;;;4.53;;
59474;SDS011;45288;51.136;16.928;2022-08-21T06:24:03;4.70;;;3.70;;
59474;SDS011;45288;51.136;16.928;2022-08-21T06:26:30;3.80;;;3.50;;
59474;SDS011;45288;51.136;16.928;2022-08-21T06:28:56;4.28;;;3.88;;
59474;SDS011;45288;51.136;16.928;2022-08-21T06:31:22;4.23;;;3.83;;
59474;SDS011;45288;51.136;16.928;2022-08-21T06:33:48;5.05;;;4.05;;
59474;SDS011;45288;51.136;16.928;2022-08-21T06:36:14;5.43;;;4.17;;
59474;SDS011;45288;51.136;16.928;2022-08-21T06:38:40;7.07;;;4.25;;
59474;SDS011;45288;51.136;16.928;2022-08-21T06:41:06;5.30;;;4.80;;
59474;SDS011;45288;51.136;16.928;2022-08-21T06:43:32;6.28;;;4.90;;
59474;SDS011;45288;51.136;16.928;2022-08-21T06:45:57;6.40;;;5.20;;
59474;SDS011;45288;51.136;16.928;2022-08-21T06:48:23;7.00;;;4.90;;
59474;SDS011;45288;51.136;16.928;2022-08-21T06:50:49;7.22;;;5.18;;
59474;SDS011;45288;51.136;16.928;2022-08-21T06:53:16;6.63;;;4.93;;
59474;SDS011;45288;51.136;16.928;2022-08-21T06:55:43;6.95;;;5.05;;
59474;SDS011;45288;51.136;16.928;2022-08-21T06:58:09;6.37;;;4.97;;
59474;SDS011;45288;51.136;16.928;2022-08-21T07:00:35;6.60;;;5.10;;
59474;SDS011;45288;51.136;16.928;2022-08-21T07:03:01;8.05;;;5.13;;
59474;SDS011;45288;51.136;16.928;2022-08-21T07:05:28;7.35;;;4.93;;
59474;SDS011;45288;51.136;16.928;2022-08-21T07:07:54;9.68;;;5.03;;
59474;SDS011;45288;51.136;16.928;2022-08-21T07:10:20;8.30;;;5.55;;
59474;SDS011;45288;51.136;16.928;2022-08-21T07:12:45;7.03;;;5.43;;
59474;SDS011;45288;51.136;16.928;2022-08-21T07:15:11;7.80;;;5.20;;
59474;SDS011;45288;51.136;16.928;2022-08-21T07:17:37;8.13;;;5.27;;
59474;SDS011;45288;51.136;16.928;2022-08-21T07:20:04;6.80;;;5.47;;
59474;SDS011;45288;51.136;16.928;2022-08-21T07:22:29;8.10;;;5.63;;
59474;SDS011;45288;51.136;16.928;2022-08-21T07:24:55;8.10;;;5.93;;
59474;SDS011;45288;51.136;16.928;2022-08-21T07:27:21;8.37;;;5.60;;
59474;SDS011;45288;51.136;16.928;2022-08-21T07:29:47;8.32;;;5.75;;
59474;SDS011;45288;51.136;16.928;2022-08-21T07:32:13;9.35;;;5.82;;
59474;SDS011;45288;51.136;16.928;2022-08-21T07:34:40;7.83;;;5.20;;
59474;SDS011;45288;51.136;16.928;2022-08-21T07:37:06;7.57;;;5.18;;
59474;SDS011;45288;51.136;16.928;2022-08-21T07:39:31;7.65;;;5.50;;
59474;SDS011;45288;51.136;16.928;2022-08-21T07:41:57;8.57;;;5.15;;
59474;SDS011;45288;51.136;16.928;2022-08-21T07:44:22;8.00;;;5.10;;
59474;SDS011;45288;51.136;16.928;2022-08-21T07:46:48;8.40;;;4.85;;
59474;SDS011;45288;51.136;16.928;2022-08-21T07:49:14;7.00;;;4.53;;
59474;SDS011;45288;51.136;16.928;2022-08-21T07:51:39;7.47;;;4.40;;
59474;SDS011;45288;51.136;16.928;2022-08-21T07:54:05;5.68;;;4.15;;
59474;SDS011;45288;51.136;16.928;2022-08-21T07:56:31;7.00;;;4.67;;
59474;SDS011;45288;51.136;16.928;2022-08-21T07:58:57;6.50;;;3.88;;
59474;SDS011;45288;51.136;16.928;2022-08-21T08:01:23;6.30;;;4.15;;
59474;SDS011;45288;51.136;16.928;2022-08-21T08:03:49;5.13;;;3.92;;
59474;SDS011;45288;51.136;16.928;2022-08-21T08:06:15;5.70;;;4.43;;
59474;SDS011;45288;51.136;16.928;2022-08-21T08:08:42;5.90;;;4.00;;
59474;SDS011;45288;51.136;16.928;2022-08-21T08:11:09;6.72;;;4.70;;
59474;SDS011;45288;51.136;16.928;2022-08-21T08:13:47;6.63;;;4.22;;
59474;SDS011;45288;51.136;16.928;2022-08-21T08:16:14;7.00;;;4.30;;
59474;SDS011;45288;51.136;16.928;2022-08-21T08:18:39;4.78;;;4.10;;
59474;SDS011;45288;51.136;16.928;2022-08-21T08:21:07;5.38;;;4.18;;
59474;SDS011;45288;51.136;16.928;2022-08-21T08:23:32;4.87;;;3.97;;
59474;SDS011;45288;51.136;16.928;2022-08-21T08:25:58;5.55;;;4.13;;
59474;SDS011;45288;51.136;16.928;2022-08-21T08:28:24;6.10;;;4.17;;
59474;SDS011;45288;51.136;16.928;2022-08-21T08:30:50;5.70;;;4.30;;
59474;SDS011;45288;51.136;16.928;2022-08-21T08:33:16;4.90;;;3.97;;
59474;SDS011;45288;51.136;16.928;2022-08-21T08:35:42;5.25;;;3.90;;
59474;SDS011;45288;51.136;16.928;2022-08-21T08:38:10;6.07;;;4.00;;
59474;SDS011;45288;51.136;16.928;2022-08-21T08:43:05;4.97;;;4.10;;
59474;SDS011;45288;51.136;16.928;2022-08-21T08:45:32;5.43;;;4.20;;
59474;SDS011;45288;51.136;16.928;2022-08-21T08:48:00;7.80;;;4.30;;
59474;SDS011;45288;51.136;16.928;2022-08-21T08:50:30;6.47;;;4.60;;
59474;SDS011;45288;51.136;16.928;2022-08-21T08:53:00;7.82;;;4.90;;
59474;SDS011;45288;51.136;16.928;2022-08-21T08:57:56;6.25;;;4.22;;
59474;SDS011;45288;51.136;16.928;2022-08-21T09:00:23;6.05;;;4.13;;
59474;SDS011;45288;51.136;16.928;2022-08-21T09:02:49;6.00;;;4.30;;
59474;SDS011;45288;51.136;16.928;2022-08-21T09:05:25;4.95;;;3.75;;
59474;SDS011;45288;51.136;16.928;2022-08-21T09:08:02;5.57;;;3.65;;
59474;SDS011;45288;51.136;16.928;2022-08-21T09:10:35;5.97;;;3.77;;
59474;SDS011;45288;51.136;16.928;2022-08-21T09:13:11;5.53;;;3.75;;
59474;SDS011;45288;51.136;16.928;2022-08-21T09:21:28;6.30;;;3.42;;
59474;SDS011;45288;51.136;16.928;2022-08-21T09:26:26;5.72;;;3.15;;
59474;SDS011;45288;51.136;16.928;2022-08-21T09:28:54;5.82;;;3.50;;
59474;SDS011;45288;51.136;16.928;2022-08-21T09:31:23;3.75;;;3.00;;
59474;SDS011;45288;51.136;16.928;2022-08-21T09:33:49;4.03;;;2.90;;
59474;SDS011;45288;51.136;16.928;2022-08-21T09:39:11;5.10;;;2.75;;
59474;SDS011;45288;51.136;16.928;2022-08-21T09:41:37;5.17;;;3.00;;
59474;SDS011;45288;51.136;16.928;2022-08-21T09:44:04;3.70;;;2.67;;
59474;SDS011;45288;51.136;16.928;2022-08-21T09:46:30;3.92;;;2.60;;
59474;SDS011;45288;51.136;16.928;2022-08-21T09:48:59;4.40;;;2.78;;
59474;SDS011;45288;51.136;16.928;2022-08-21T09:51:29;3.60;;;2.43;;
59474;SDS011;45288;51.136;16.928;2022-08-21T09:56:22;3.65;;;2.25;;
59474;SDS011;45288;51.136;16.928;2022-08-21T09:59:14;4.15;;;2.63;;
59474;SDS011;45288;51.136;16.928;2022-08-21T10:01:44;2.92;;;2.50;;
59474;SDS011;45288;51.136;16.928;2022-08-21T10:04:10;4.07;;;2.50;;
59474;SDS011;45288;51.136;16.928;2022-08-21T10:06:36;4.00;;;2.63;;
59474;SDS011;45288;51.136;16.928;2022-08-21T10:09:16;5.70;;;2.80;;
59474;SDS011;45288;51.136;16.928;2022-08-21T10:11:50;4.10;;;2.38;;
59474;SDS011;45288;51.136;16.928;2022-08-21T10:42:51;4.18;;;2.70;;
59474;SDS011;45288;51.136;16.928;2022-08-21T10:47:53;5.32;;;2.80;;
59474;SDS011;45288;51.136;16.928;2022-08-21T10:55:21;3.70;;;3.00;;
59474;SDS011;45288;51.136;16.928;2022-08-21T10:57:52;4.25;;;2.80;;
59474;SDS011;45288;51.136;16.928;2022-08-21T11:00:23;6.43;;;2.90;;
59474;SDS011;45288;51.136;16.928;2022-08-21T11:08:10;4.00;;;2.60;;
59474;SDS011;45288;51.136;16.928;2022-08-21T11:11:20;4.30;;;3.10;;
59474;SDS011;45288;51.136;16.928;2022-08-21T11:13:40;4.55;;;3.20;;
59474;SDS011;45288;51.136;16.928;2022-08-21T11:19:00;5.30;;;3.30;;
59474;SDS011;45288;51.136;16.928;2022-08-21T11:21:38;4.55;;;3.00;;
59474;SDS011;45288;51.136;16.928;2022-08-21T11:26:44;4.38;;;3.13;;
59474;SDS011;45288;51.136;16.928;2022-08-21T11:29:23;6.05;;;3.08;;
59474;SDS011;45288;51.136;16.928;2022-08-21T11:39:18;5.90;;;3.20;;
59474;SDS011;45288;51.136;16.928;2022-08-21T11:42:14;4.18;;;3.20;;
59474;SDS011;45288;51.136;16.928;2022-08-21T11:47:19;5.27;;;3.30;;
59474;SDS011;45288;51.136;16.928;2022-08-21T11:55:11;5.25;;;3.00;;
59474;SDS011;45288;51.136;16.928;2022-08-21T11:57:51;6.18;;;3.40;;
59474;SDS011;45288;51.136;16.928;2022-08-21T12:02:54;4.85;;;3.38;;
59474;SDS011;45288;51.136;16.928;2022-08-21T12:05:35;4.85;;;3.03;;
59474;SDS011;45288;51.136;16.928;2022-08-21T12:10:38;6.22;;;3.13;;
59474;SDS011;45288;51.136;16.928;2022-08-21T12:13:06;5.97;;;3.10;;
59474;SDS011;45288;51.136;16.928;2022-08-21T12:15:33;5.03;;;3.20;;
59474;SDS011;45288;51.136;16.928;2022-08-21T12:20:44;5.53;;;3.15;;
59474;SDS011;45288;51.136;16.928;2022-08-21T12:23:28;4.68;;;3.20;;
59474;SDS011;45288;51.136;16.928;2022-08-21T12:28:36;4.85;;;3.10;;
59474;SDS011;45288;51.136;16.928;2022-08-21T12:31:02;5.53;;;3.30;;
59474;SDS011;45288;51.136;16.928;2022-08-21T12:33:35;5.28;;;3.40;;
59474;SDS011;45288;51.136;16.928;2022-08-21T12:36:13;4.35;;;3.10;;
59474;SDS011;45288;51.136;16.928;2022-08-21T12:41:11;5.40;;;3.22;;
59474;SDS011;45288;51.136;16.928;2022-08-21T12:43:38;4.55;;;3.20;;
59474;SDS011;45288;51.136;16.928;2022-08-21T12:46:06;5.05;;;3.47;;
59474;SDS011;45288;51.136;16.928;2022-08-21T12:49:14;6.10;;;3.38;;
59474;SDS011;45288;51.136;16.928;2022-08-21T12:51:29;4.32;;;3.60;;
59474;SDS011;45288;51.136;16.928;2022-08-21T12:53:57;6.03;;;3.88;;
59474;SDS011;45288;51.136;16.928;2022-08-21T12:56:24;5.72;;;3.35;;
59474;SDS011;45288;51.136;16.928;2022-08-21T12:58:52;5.10;;;3.55;;
59474;SDS011;45288;51.136;16.928;2022-08-21T13:04:08;5.88;;;3.55;;
59474;SDS011;45288;51.136;16.928;2022-08-21T13:06:39;6.85;;;3.60;;
59474;SDS011;45288;51.136;16.928;2022-08-21T13:09:06;4.35;;;3.60;;
59474;SDS011;45288;51.136;16.928;2022-08-21T13:11:33;5.13;;;3.50;;
59474;SDS011;45288;51.136;16.928;2022-08-21T13:13:59;7.55;;;3.58;;
59474;SDS011;45288;51.136;16.928;2022-08-21T13:16:26;6.38;;;3.65;;
59474;SDS011;45288;51.136;16.928;2022-08-21T13:21:19;4.97;;;3.43;;
59474;SDS011;45288;51.136;16.928;2022-08-21T13:23:45;5.75;;;3.80;;
59474;SDS011;45288;51.136;16.928;2022-08-21T13:26:15;6.20;;;3.72;;
59474;SDS011;45288;51.136;16.928;2022-08-21T13:28:41;7.47;;;3.40;;
59474;SDS011;45288;51.136;16.928;2022-08-21T13:31:07;3.73;;;3.30;;
59474;SDS011;45288;51.136;16.928;2022-08-21T13:33:35;4.75;;;3.35;;
59474;SDS011;45288;51.136;16.928;2022-08-21T13:36:09;6.00;;;3.30;;
59474;SDS011;45288;51.136;16.928;2022-08-21T13:38:35;4.80;;;3.22;;
59474;SDS011;45288;51.136;16.928;2022-08-21T13:41:03;5.03;;;3.40;;
59474;SDS011;45288;51.136;16.928;2022-08-21T13:43:34;6.03;;;3.50;;
59474;SDS011;45288;51.136;16.928;2022-08-21T13:46:00;6.47;;;3.83;;
59474;SDS011;45288;51.136;16.928;2022-08-21T13:48:29;4.50;;;3.43;;
59474;SDS011;45288;51.136;16.928;2022-08-21T13:50:57;6.82;;;3.80;;
59474;SDS011;45288;51.136;16.928;2022-08-21T13:55:58;4.82;;;3.50;;
59474;SDS011;45288;51.136;16.928;2022-08-21T13:58:25;5.70;;;3.55;;
59474;SDS011;45288;51.136;16.928;2022-08-21T14:00:50;6.47;;;3.80;;
59474;SDS011;45288;51.136;16.928;2022-08-21T14:06:02;5.13;;;3.20;;
59474;SDS011;45288;51.136;16.928;2022-08-21T14:08:35;4.85;;;3.20;;
59474;SDS011;45288;51.136;16.928;2022-08-21T14:11:02;4.65;;;3.47;;
59474;SDS011;45288;51.136;16.928;2022-08-21T14:13:37;5.23;;;3.27;;
59474;SDS011;45288;51.136;16.928;2022-08-21T14:16:03;3.85;;;3.45;;
59474;SDS011;45288;51.136;16.928;2022-08-21T14:18:34;4.57;;;3.38;;
59474;SDS011;45288;51.136;16.928;2022-08-21T14:21:08;5.60;;;3.75;;
59474;SDS011;45288;51.136;16.928;2022-08-21T14:23:35;4.32;;;3.20;;
59474;SDS011;45288;51.136;16.928;2022-08-21T14:26:02;3.95;;;3.28;;
59474;SDS011;45288;51.136;16.928;2022-08-21T14:28:30;5.30;;;3.63;;
59474;SDS011;45288;51.136;16.928;2022-08-21T14:30:58;4.60;;;3.47;;
59474;SDS011;45288;51.136;16.928;2022-08-21T14:33:28;3.97;;;3.33;;
59474;SDS011;45288;51.136;16.928;2022-08-21T14:35:54;5.32;;;3.60;;
59474;SDS011;45288;51.136;16.928;2022-08-21T14:38:21;4.53;;;3.63;;
59474;SDS011;45288;51.136;16.928;2022-08-21T14:40:48;5.80;;;3.73;;
59474;SDS011;45288;51.136;16.928;2022-08-21T14:43:15;4.70;;;3.55;;
59474;SDS011;45288;51.136;16.928;2022-08-21T14:45:41;4.97;;;3.70;;
59474;SDS011;45288;51.136;16.928;2022-08-21T14:48:06;6.17;;;3.97;;
59474;SDS011;45288;51.136;16.928;2022-08-21T14:50:32;5.75;;;3.83;;
59474;SDS011;45288;51.136;16.928;2022-08-21T14:52:58;6.30;;;4.07;;
59474;SDS011;45288;51.136;16.928;2022-08-21T14:55:24;5.20;;;4.00;;
59474;SDS011;45288;51.136;16.928;2022-08-21T14:57:51;5.83;;;3.93;;
59474;SDS011;45288;51.136;16.928;2022-08-21T15:00:19;7.03;;;3.95;;
59474;SDS011;45288;51.136;16.928;2022-08-21T15:02:44;4.82;;;3.72;;
59474;SDS011;45288;51.136;16.928;2022-08-21T15:05:11;4.27;;;3.70;;
59474;SDS011;45288;51.136;16.928;2022-08-21T15:07:36;5.55;;;4.57;;
59474;SDS011;45288;51.136;16.928;2022-08-21T15:10:03;5.47;;;4.10;;
59474;SDS011;45288;51.136;16.928;2022-08-21T15:12:29;5.07;;;4.18;;
59474;SDS011;45288;51.136;16.928;2022-08-21T15:14:55;6.88;;;4.38;;
59474;SDS011;45288;51.136;16.928;2022-08-21T15:17:20;5.83;;;4.70;;
59474;SDS011;45288;51.136;16.928;2022-08-21T15:19:46;6.28;;;4.80;;
59474;SDS011;45288;51.136;16.928;2022-08-21T15:22:12;5.97;;;4.53;;
59474;SDS011;45288;51.136;16.928;2022-08-21T15:24:37;5.77;;;5.17;;
59474;SDS011;45288;51.136;16.928;2022-08-21T15:27:03;6.63;;;4.90;;
59474;SDS011;45288;51.136;16.928;2022-08-21T15:29:31;6.15;;;4.80;;
59474;SDS011;45288;51.136;16.928;2022-08-21T15:31:58;7.65;;;5.20;;
59474;SDS011;45288;51.136;16.928;2022-08-21T15:34:24;6.80;;;5.28;;
59474;SDS011;45288;51.136;16.928;2022-08-21T15:36:50;5.45;;;4.45;;
59474;SDS011;45288;51.136;16.928;2022-08-21T15:39:16;6.18;;;4.80;;
59474;SDS011;45288;51.136;16.928;2022-08-21T15:41:43;6.63;;;4.80;;
59474;SDS011;45288;51.136;16.928;2022-08-21T15:44:09;5.80;;;4.88;;
59474;SDS011;45288;51.136;16.928;2022-08-21T15:46:36;6.03;;;4.40;;
59474;SDS011;45288;51.136;16.928;2022-08-21T15:49:02;8.88;;;5.30;;
59474;SDS011;45288;51.136;16.928;2022-08-21T15:51:28;7.05;;;5.38;;
59474;SDS011;45288;51.136;16.928;2022-08-21T15:53:53;8.50;;;4.93;;
59474;SDS011;45288;51.136;16.928;2022-08-21T15:56:32;7.53;;;5.33;;
59474;SDS011;45288;51.136;16.928;2022-08-21T15:58:59;7.22;;;4.88;;
59474;SDS011;45288;51.136;16.928;2022-08-21T16:01:25;6.40;;;5.30;;
59474;SDS011;45288;51.136;16.928;2022-08-21T16:03:51;7.20;;;5.82;;
59474;SDS011;45288;51.136;16.928;2022-08-21T16:06:18;6.35;;;5.20;;
59474;SDS011;45288;51.136;16.928;2022-08-21T16:08:43;7.25;;;5.00;;
59474;SDS011;45288;51.136;16.928;2022-08-21T16:11:10;6.88;;;5.65;;
59474;SDS011;45288;51.136;16.928;2022-08-21T16:13:38;7.38;;;5.57;;
59474;SDS011;45288;51.136;16.928;2022-08-21T16:16:04;8.45;;;5.70;;
59474;SDS011;45288;51.136;16.928;2022-08-21T16:18:30;7.28;;;5.00;;